sensor_id;sensor_type;location;lat;lon;timestamp;P1;durP1;ratioP1;P2;durP2;ratioP2
21356;SDS011;10836;53.068;18.234;2023-04-01T00:01:11;35.37;;;21.67;;
21356;SDS011;10836;53.068;18.234;2023-04-01T00:03:43;38.43;;;22.70;;
21356;SDS011;10836;53.068;18.234;2023-04-01T00:06:14;38.53;;;24.37;;
21356;SDS011;10836;53.068;18.234;2023-04-01T00:08:43;35.50;;;23.27;;
21356;SDS011;10836;53.068;18.234;2023-04-01T00:11:11;36.57;;;21.83;;
21356;SDS011;10836;53.068;18.234;2023-04-01T00:13:39;32.83;;;19.50;;
21356;SDS011;10836;53.068;18.234;2023-04-01T00:16:06;29.50;;;17.90;;
21356;SDS011;10836;53.068;18.234;2023-04-01T00:18:47;30.73;;;17.30;;
21356;SDS011;10836;53.068;18.234;2023-04-01T00:21:15;28.30;;;17.10;;
21356;SDS011;10836;53.068;18.234;2023-04-01T00:23:42;26.00;;;16.13;;
21356;SDS011;10836;53.068;18.234;2023-04-01T00:26:10;27.70;;;15.77;;
21356;SDS011;10836;53.068;18.234;2023-04-01T00:28:39;23.90;;;14.40;;
21356;SDS011;10836;53.068;18.234;2023-04-01T00:31:07;25.40;;;15.33;;
21356;SDS011;10836;53.068;18.234;2023-04-01T00:33:36;25.97;;;14.80;;
21356;SDS011;10836;53.068;18.234;2023-04-01T00:36:10;26.57;;;15.00;;
21356;SDS011;10836;53.068;18.234;2023-04-01T00:38:39;24.93;;;15.23;;
21356;SDS011;10836;53.068;18.234;2023-04-01T00:41:08;28.40;;;17.30;;
21356;SDS011;10836;53.068;18.234;2023-04-01T00:43:41;31.43;;;18.47;;
21356;SDS011;10836;53.068;18.234;2023-04-01T00:46:09;28.97;;;16.10;;
21356;SDS011;10836;53.068;18.234;2023-04-01T00:48:36;24.20;;;14.60;;
21356;SDS011;10836;53.068;18.234;2023-04-01T00:51:14;22.00;;;14.10;;
21356;SDS011;10836;53.068;18.234;2023-04-01T00:53:45;29.13;;;18.90;;
21356;SDS011;10836;53.068;18.234;2023-04-01T00:56:16;37.60;;;25.00;;
21356;SDS011;10836;53.068;18.234;2023-04-01T00:58:50;42.43;;;26.20;;
21356;SDS011;10836;53.068;18.234;2023-04-01T01:01:23;34.03;;;21.70;;
21356;SDS011;10836;53.068;18.234;2023-04-01T01:03:52;46.57;;;23.23;;
21356;SDS011;10836;53.068;18.234;2023-04-01T01:06:32;59.00;;;27.23;;
21356;SDS011;10836;53.068;18.234;2023-04-01T01:09:20;73.10;;;31.00;;
21356;SDS011;10836;53.068;18.234;2023-04-01T01:14:48;84.57;;;34.43;;
21356;SDS011;10836;53.068;18.234;2023-04-01T01:22:54;67.40;;;32.07;;
21356;SDS011;10836;53.068;18.234;2023-04-01T01:28:56;59.97;;;30.90;;
21356;SDS011;10836;53.068;18.234;2023-04-01T01:37:08;54.10;;;28.13;;
21356;SDS011;10836;53.068;18.234;2023-04-01T01:39:41;47.47;;;25.33;;
21356;SDS011;10836;53.068;18.234;2023-04-01T01:42:11;46.77;;;26.93;;
21356;SDS011;10836;53.068;18.234;2023-04-01T01:44:42;41.73;;;23.93;;
21356;SDS011;10836;53.068;18.234;2023-04-01T01:47:13;37.90;;;21.17;;
21356;SDS011;10836;53.068;18.234;2023-04-01T01:49:41;39.03;;;22.43;;
21356;SDS011;10836;53.068;18.234;2023-04-01T01:52:10;36.83;;;20.57;;
21356;SDS011;10836;53.068;18.234;2023-04-01T01:54:48;36.23;;;21.60;;
21356;SDS011;10836;53.068;18.234;2023-04-01T01:57:34;33.27;;;20.00;;
21356;SDS011;10836;53.068;18.234;2023-04-01T02:00:12;34.90;;;20.70;;
21356;SDS011;10836;53.068;18.234;2023-04-01T02:02:43;34.27;;;19.43;;
21356;SDS011;10836;53.068;18.234;2023-04-01T02:05:17;36.13;;;21.37;;
21356;SDS011;10836;53.068;18.234;2023-04-01T02:07:51;37.10;;;19.77;;
21356;SDS011;10836;53.068;18.234;2023-04-01T02:10:25;33.33;;;18.83;;
21356;SDS011;10836;53.068;18.234;2023-04-01T02:12:56;35.10;;;19.80;;
21356;SDS011;10836;53.068;18.234;2023-04-01T02:15:28;34.53;;;20.23;;
21356;SDS011;10836;53.068;18.234;2023-04-01T02:18:00;35.13;;;20.73;;
21356;SDS011;10836;53.068;18.234;2023-04-01T02:20:28;37.03;;;21.03;;
21356;SDS011;10836;53.068;18.234;2023-04-01T02:22:56;35.87;;;21.53;;
21356;SDS011;10836;53.068;18.234;2023-04-01T02:25:30;39.47;;;21.73;;
21356;SDS011;10836;53.068;18.234;2023-04-01T02:28:01;35.43;;;21.60;;
21356;SDS011;10836;53.068;18.234;2023-04-01T02:30:32;38.10;;;23.57;;
21356;SDS011;10836;53.068;18.234;2023-04-01T02:33:01;38.83;;;21.17;;
21356;SDS011;10836;53.068;18.234;2023-04-01T02:35:30;37.73;;;22.33;;
21356;SDS011;10836;53.068;18.234;2023-04-01T02:37:59;34.80;;;19.63;;
21356;SDS011;10836;53.068;18.234;2023-04-01T02:40:27;30.20;;;19.33;;
21356;SDS011;10836;53.068;18.234;2023-04-01T02:42:54;31.10;;;18.50;;
21356;SDS011;10836;53.068;18.234;2023-04-01T02:45:21;27.57;;;17.43;;
21356;SDS011;10836;53.068;18.234;2023-04-01T02:47:48;28.33;;;16.73;;
21356;SDS011;10836;53.068;18.234;2023-04-01T02:50:15;26.40;;;16.53;;
21356;SDS011;10836;53.068;18.234;2023-04-01T02:52:42;26.33;;;15.47;;
21356;SDS011;10836;53.068;18.234;2023-04-01T02:55:09;27.10;;;16.50;;
21356;SDS011;10836;53.068;18.234;2023-04-01T02:57:36;24.63;;;15.60;;
21356;SDS011;10836;53.068;18.234;2023-04-01T03:00:03;22.67;;;14.80;;
21356;SDS011;10836;53.068;18.234;2023-04-01T03:02:30;22.70;;;14.57;;
21356;SDS011;10836;53.068;18.234;2023-04-01T03:04:58;24.13;;;14.73;;
21356;SDS011;10836;53.068;18.234;2023-04-01T03:07:24;23.77;;;14.70;;
21356;SDS011;10836;53.068;18.234;2023-04-01T03:09:51;23.30;;;15.73;;
21356;SDS011;10836;53.068;18.234;2023-04-01T03:12:18;21.30;;;14.27;;
21356;SDS011;10836;53.068;18.234;2023-04-01T03:14:49;21.03;;;14.10;;
21356;SDS011;10836;53.068;18.234;2023-04-01T03:17:16;24.03;;;14.13;;
21356;SDS011;10836;53.068;18.234;2023-04-01T03:19:44;21.67;;;13.60;;
21356;SDS011;10836;53.068;18.234;2023-04-01T03:22:11;20.27;;;13.47;;
21356;SDS011;10836;53.068;18.234;2023-04-01T03:24:38;22.07;;;13.43;;
21356;SDS011;10836;53.068;18.234;2023-04-01T03:27:05;21.83;;;12.87;;
21356;SDS011;10836;53.068;18.234;2023-04-01T03:29:32;20.73;;;12.37;;
21356;SDS011;10836;53.068;18.234;2023-04-01T03:31:59;20.50;;;12.77;;
21356;SDS011;10836;53.068;18.234;2023-04-01T03:34:26;18.37;;;11.87;;
21356;SDS011;10836;53.068;18.234;2023-04-01T03:36:53;20.23;;;12.03;;
21356;SDS011;10836;53.068;18.234;2023-04-01T03:39:21;21.97;;;13.03;;
21356;SDS011;10836;53.068;18.234;2023-04-01T03:41:49;18.43;;;11.87;;
21356;SDS011;10836;53.068;18.234;2023-04-01T03:44:16;19.77;;;12.23;;
21356;SDS011;10836;53.068;18.234;2023-04-01T03:46:47;21.00;;;11.73;;
21356;SDS011;10836;53.068;18.234;2023-04-01T03:49:14;20.13;;;11.87;;
21356;SDS011;10836;53.068;18.234;2023-04-01T03:51:42;17.90;;;11.00;;
21356;SDS011;10836;53.068;18.234;2023-04-01T03:54:10;22.43;;;11.93;;
21356;SDS011;10836;53.068;18.234;2023-04-01T03:56:38;16.33;;;9.27;;
21356;SDS011;10836;53.068;18.234;2023-04-01T03:59:06;15.30;;;8.57;;
21356;SDS011;10836;53.068;18.234;2023-04-01T04:01:33;15.60;;;8.50;;
21356;SDS011;10836;53.068;18.234;2023-04-01T04:04:01;17.13;;;8.60;;
21356;SDS011;10836;53.068;18.234;2023-04-01T04:06:28;16.20;;;8.27;;
21356;SDS011;10836;53.068;18.234;2023-04-01T04:08:55;15.13;;;7.67;;
21356;SDS011;10836;53.068;18.234;2023-04-01T04:11:22;17.40;;;7.80;;
21356;SDS011;10836;53.068;18.234;2023-04-01T04:13:51;19.10;;;9.33;;
21356;SDS011;10836;53.068;18.234;2023-04-01T04:16:19;17.80;;;10.37;;
21356;SDS011;10836;53.068;18.234;2023-04-01T04:18:53;17.70;;;10.10;;
21356;SDS011;10836;53.068;18.234;2023-04-01T04:21:20;17.20;;;9.17;;
21356;SDS011;10836;53.068;18.234;2023-04-01T04:23:47;22.03;;;10.67;;
21356;SDS011;10836;53.068;18.234;2023-04-01T04:26:17;21.67;;;10.67;;
21356;SDS011;10836;53.068;18.234;2023-04-01T04:28:53;24.03;;;12.20;;
21356;SDS011;10836;53.068;18.234;2023-04-01T04:31:22;24.63;;;12.40;;
21356;SDS011;10836;53.068;18.234;2023-04-01T04:33:51;25.27;;;12.73;;
21356;SDS011;10836;53.068;18.234;2023-04-01T04:36:19;28.47;;;14.03;;
21356;SDS011;10836;53.068;18.234;2023-04-01T04:38:49;27.63;;;13.40;;
21356;SDS011;10836;53.068;18.234;2023-04-01T04:41:16;27.83;;;12.97;;
21356;SDS011;10836;53.068;18.234;2023-04-01T04:43:48;28.60;;;13.93;;
21356;SDS011;10836;53.068;18.234;2023-04-01T04:46:17;28.70;;;14.37;;
21356;SDS011;10836;53.068;18.234;2023-04-01T04:48:46;27.03;;;14.20;;
21356;SDS011;10836;53.068;18.234;2023-04-01T04:51:15;27.90;;;14.93;;
21356;SDS011;10836;53.068;18.234;2023-04-01T04:53:43;29.63;;;15.73;;
21356;SDS011;10836;53.068;18.234;2023-04-01T04:56:11;32.63;;;17.33;;
21356;SDS011;10836;53.068;18.234;2023-04-01T04:58:58;39.80;;;17.70;;
21356;SDS011;10836;53.068;18.234;2023-04-01T05:01:37;38.30;;;20.13;;
21356;SDS011;10836;53.068;18.234;2023-04-01T05:04:04;38.80;;;18.77;;
21356;SDS011;10836;53.068;18.234;2023-04-01T05:06:31;34.53;;;17.20;;
21356;SDS011;10836;53.068;18.234;2023-04-01T05:08:59;29.80;;;17.03;;
21356;SDS011;10836;53.068;18.234;2023-04-01T05:11:25;31.60;;;16.80;;
21356;SDS011;10836;53.068;18.234;2023-04-01T05:13:54;31.63;;;16.67;;
21356;SDS011;10836;53.068;18.234;2023-04-01T05:16:21;31.83;;;16.30;;
21356;SDS011;10836;53.068;18.234;2023-04-01T05:18:48;27.93;;;14.67;;
21356;SDS011;10836;53.068;18.234;2023-04-01T05:21:15;33.60;;;17.03;;
21356;SDS011;10836;53.068;18.234;2023-04-01T05:23:43;32.93;;;17.17;;
21356;SDS011;10836;53.068;18.234;2023-04-01T05:26:11;37.87;;;19.93;;
21356;SDS011;10836;53.068;18.234;2023-04-01T05:28:39;43.27;;;21.87;;
21356;SDS011;10836;53.068;18.234;2023-04-01T05:31:07;33.67;;;17.57;;
21356;SDS011;10836;53.068;18.234;2023-04-01T05:33:37;34.13;;;18.40;;
21356;SDS011;10836;53.068;18.234;2023-04-01T05:36:08;36.90;;;17.33;;
21356;SDS011;10836;53.068;18.234;2023-04-01T05:38:37;39.37;;;18.07;;
21356;SDS011;10836;53.068;18.234;2023-04-01T05:41:06;32.50;;;17.97;;
21356;SDS011;10836;53.068;18.234;2023-04-01T05:43:38;35.50;;;19.03;;
21356;SDS011;10836;53.068;18.234;2023-04-01T05:46:29;34.37;;;18.20;;
21356;SDS011;10836;53.068;18.234;2023-04-01T05:49:13;36.83;;;18.63;;
21356;SDS011;10836;53.068;18.234;2023-04-01T05:51:40;35.93;;;18.27;;
21356;SDS011;10836;53.068;18.234;2023-04-01T05:54:07;32.90;;;17.03;;
21356;SDS011;10836;53.068;18.234;2023-04-01T05:56:35;35.23;;;17.47;;
21356;SDS011;10836;53.068;18.234;2023-04-01T05:59:03;34.47;;;16.67;;
21356;SDS011;10836;53.068;18.234;2023-04-01T06:01:29;31.30;;;15.77;;
21356;SDS011;10836;53.068;18.234;2023-04-01T06:03:57;31.37;;;15.60;;
21356;SDS011;10836;53.068;18.234;2023-04-01T06:06:26;29.90;;;15.20;;
21356;SDS011;10836;53.068;18.234;2023-04-01T06:09:24;30.70;;;15.20;;
21356;SDS011;10836;53.068;18.234;2023-04-01T06:11:59;27.60;;;14.53;;
21356;SDS011;10836;53.068;18.234;2023-04-01T06:25:54;31.30;;;17.80;;
21356;SDS011;10836;53.068;18.234;2023-04-01T06:39:32;31.20;;;15.00;;
21356;SDS011;10836;53.068;18.234;2023-04-01T06:48:22;27.93;;;14.43;;
21356;SDS011;10836;53.068;18.234;2023-04-01T06:51:15;26.20;;;13.97;;
21356;SDS011;10836;53.068;18.234;2023-04-01T06:57:08;23.17;;;12.37;;
21356;SDS011;10836;53.068;18.234;2023-04-01T06:59:47;21.97;;;13.90;;
21356;SDS011;10836;53.068;18.234;2023-04-01T07:02:20;23.43;;;12.60;;
21356;SDS011;10836;53.068;18.234;2023-04-01T07:04:55;21.63;;;13.70;;
21356;SDS011;10836;53.068;18.234;2023-04-01T07:07:33;25.23;;;15.90;;
21356;SDS011;10836;53.068;18.234;2023-04-01T07:10:10;24.07;;;13.50;;
21356;SDS011;10836;53.068;18.234;2023-04-01T07:13:21;22.67;;;13.77;;
21356;SDS011;10836;53.068;18.234;2023-04-01T07:16:11;24.07;;;14.70;;
21356;SDS011;10836;53.068;18.234;2023-04-01T07:18:44;27.13;;;16.60;;
21356;SDS011;10836;53.068;18.234;2023-04-01T07:22:13;22.87;;;13.83;;
21356;SDS011;10836;53.068;18.234;2023-04-01T07:25:14;26.20;;;14.17;;
21356;SDS011;10836;53.068;18.234;2023-04-01T07:27:59;21.87;;;13.47;;
21356;SDS011;10836;53.068;18.234;2023-04-01T07:30:33;23.90;;;13.87;;
21356;SDS011;10836;53.068;18.234;2023-04-01T07:33:23;22.03;;;13.87;;
21356;SDS011;10836;53.068;18.234;2023-04-01T07:35:57;27.60;;;15.13;;
21356;SDS011;10836;53.068;18.234;2023-04-01T07:38:49;24.13;;;14.23;;
21356;SDS011;10836;53.068;18.234;2023-04-01T07:44:48;21.73;;;12.63;;
21356;SDS011;10836;53.068;18.234;2023-04-01T07:50:22;23.57;;;13.67;;
21356;SDS011;10836;53.068;18.234;2023-04-01T07:52:58;24.77;;;13.97;;
21356;SDS011;10836;53.068;18.234;2023-04-01T07:58:51;22.57;;;13.50;;
21356;SDS011;10836;53.068;18.234;2023-04-01T08:04:34;22.70;;;13.27;;
21356;SDS011;10836;53.068;18.234;2023-04-01T08:07:17;19.47;;;11.70;;
21356;SDS011;10836;53.068;18.234;2023-04-01T08:10:20;19.07;;;11.90;;
21356;SDS011;10836;53.068;18.234;2023-04-01T08:16:17;18.97;;;11.60;;
21356;SDS011;10836;53.068;18.234;2023-04-01T08:21:32;23.20;;;13.23;;
21356;SDS011;10836;53.068;18.234;2023-04-01T08:24:11;21.00;;;12.57;;
21356;SDS011;10836;53.068;18.234;2023-04-01T08:26:49;23.80;;;13.57;;
21356;SDS011;10836;53.068;18.234;2023-04-01T08:29:23;27.97;;;16.10;;
21356;SDS011;10836;53.068;18.234;2023-04-01T08:34:39;23.30;;;13.53;;
21356;SDS011;10836;53.068;18.234;2023-04-01T08:37:18;24.40;;;13.63;;
21356;SDS011;10836;53.068;18.234;2023-04-01T08:39:54;21.20;;;12.90;;
21356;SDS011;10836;53.068;18.234;2023-04-01T08:48:55;23.50;;;15.13;;
21356;SDS011;10836;53.068;18.234;2023-04-01T09:20:00;21.30;;;13.67;;
21356;SDS011;10836;53.068;18.234;2023-04-01T09:23:07;20.00;;;13.13;;
21356;SDS011;10836;53.068;18.234;2023-04-01T09:25:53;18.90;;;13.00;;
21356;SDS011;10836;53.068;18.234;2023-04-01T09:31:45;14.90;;;9.37;;
21356;SDS011;10836;53.068;18.234;2023-04-01T09:43:04;23.60;;;14.27;;
21356;SDS011;10836;53.068;18.234;2023-04-01T09:45:48;21.57;;;13.77;;
21356;SDS011;10836;53.068;18.234;2023-04-01T10:08:36;16.67;;;9.13;;
21356;SDS011;10836;53.068;18.234;2023-04-01T10:17:35;14.90;;;9.10;;
21356;SDS011;10836;53.068;18.234;2023-04-01T10:20:40;14.00;;;9.07;;
21356;SDS011;10836;53.068;18.234;2023-04-01T10:26:45;15.87;;;10.77;;
21356;SDS011;10836;53.068;18.234;2023-04-01T10:29:59;21.10;;;13.53;;
21356;SDS011;10836;53.068;18.234;2023-04-01T10:48:13;19.93;;;14.00;;
21356;SDS011;10836;53.068;18.234;2023-04-01T11:02:57;17.90;;;11.97;;
21356;SDS011;10836;53.068;18.234;2023-04-01T11:12:01;17.50;;;11.37;;
21356;SDS011;10836;53.068;18.234;2023-04-01T11:23:07;17.87;;;10.27;;
21356;SDS011;10836;53.068;18.234;2023-04-01T11:29:03;21.23;;;12.83;;
21356;SDS011;10836;53.068;18.234;2023-04-01T11:37:38;14.70;;;9.77;;
21356;SDS011;10836;53.068;18.234;2023-04-01T11:43:29;14.67;;;8.77;;
21356;SDS011;10836;53.068;18.234;2023-04-01T11:52:51;11.77;;;5.00;;
21356;SDS011;10836;53.068;18.234;2023-04-01T12:01:22;10.73;;;6.00;;
21356;SDS011;10836;53.068;18.234;2023-04-01T12:10:15;13.03;;;8.43;;
21356;SDS011;10836;53.068;18.234;2023-04-01T12:13:31;11.57;;;7.70;;
21356;SDS011;10836;53.068;18.234;2023-04-01T12:16:04;9.90;;;6.80;;
21356;SDS011;10836;53.068;18.234;2023-04-01T12:21:57;9.37;;;5.70;;
21356;SDS011;10836;53.068;18.234;2023-04-01T12:24:46;9.33;;;5.43;;
21356;SDS011;10836;53.068;18.234;2023-04-01T12:27:29;7.70;;;5.10;;
21356;SDS011;10836;53.068;18.234;2023-04-01T12:53:01;5.37;;;3.50;;
21356;SDS011;10836;53.068;18.234;2023-04-01T12:55:44;6.73;;;3.60;;
21356;SDS011;10836;53.068;18.234;2023-04-01T13:01:19;5.97;;;3.43;;
21356;SDS011;10836;53.068;18.234;2023-04-01T13:06:45;5.90;;;4.13;;
21356;SDS011;10836;53.068;18.234;2023-04-01T13:09:24;6.10;;;4.40;;
21356;SDS011;10836;53.068;18.234;2023-04-01T13:23:10;7.00;;;5.20;;
21356;SDS011;10836;53.068;18.234;2023-04-01T13:25:53;10.33;;;5.47;;
21356;SDS011;10836;53.068;18.234;2023-04-01T13:28:42;10.57;;;6.07;;
21356;SDS011;10836;53.068;18.234;2023-04-01T13:39:57;12.23;;;6.77;;
21356;SDS011;10836;53.068;18.234;2023-04-01T13:42:31;9.07;;;6.37;;
21356;SDS011;10836;53.068;18.234;2023-04-01T13:45:21;10.93;;;6.07;;
21356;SDS011;10836;53.068;18.234;2023-04-01T13:47:59;9.70;;;5.97;;
21356;SDS011;10836;53.068;18.234;2023-04-01T13:50:34;7.27;;;5.37;;
21356;SDS011;10836;53.068;18.234;2023-04-01T13:53:11;7.87;;;5.83;;
21356;SDS011;10836;53.068;18.234;2023-04-01T13:56:00;7.67;;;4.83;;
21356;SDS011;10836;53.068;18.234;2023-04-01T13:58:57;7.57;;;5.60;;
21356;SDS011;10836;53.068;18.234;2023-04-01T14:04:38;9.83;;;4.73;;
21356;SDS011;10836;53.068;18.234;2023-04-01T14:07:24;6.63;;;4.70;;
21356;SDS011;10836;53.068;18.234;2023-04-01T14:10:13;6.50;;;3.93;;
21356;SDS011;10836;53.068;18.234;2023-04-01T14:15:46;6.97;;;4.57;;
21356;SDS011;10836;53.068;18.234;2023-04-01T14:23:38;6.23;;;4.40;;
21356;SDS011;10836;53.068;18.234;2023-04-01T14:26:21;8.73;;;4.93;;
21356;SDS011;10836;53.068;18.234;2023-04-01T14:39:56;8.13;;;4.90;;
21356;SDS011;10836;53.068;18.234;2023-04-01T14:43:40;7.67;;;5.03;;
21356;SDS011;10836;53.068;18.234;2023-04-01T14:51:21;8.40;;;5.23;;
21356;SDS011;10836;53.068;18.234;2023-04-01T14:54:00;11.33;;;4.87;;
21356;SDS011;10836;53.068;18.234;2023-04-01T14:56:35;5.37;;;3.30;;
21356;SDS011;10836;53.068;18.234;2023-04-01T14:59:07;7.93;;;4.23;;
21356;SDS011;10836;53.068;18.234;2023-04-01T15:01:55;6.93;;;4.30;;
21356;SDS011;10836;53.068;18.234;2023-04-01T15:04:44;8.90;;;3.67;;
21356;SDS011;10836;53.068;18.234;2023-04-01T15:10:12;5.70;;;3.17;;
21356;SDS011;10836;53.068;18.234;2023-04-01T15:24:03;6.90;;;3.10;;
21356;SDS011;10836;53.068;18.234;2023-04-01T15:37:53;6.03;;;3.10;;
21356;SDS011;10836;53.068;18.234;2023-04-01T15:40:25;4.53;;;2.30;;
21356;SDS011;10836;53.068;18.234;2023-04-01T15:43:05;7.53;;;3.03;;
21356;SDS011;10836;53.068;18.234;2023-04-01T15:48:36;7.50;;;4.23;;
21356;SDS011;10836;53.068;18.234;2023-04-01T15:51:24;6.67;;;4.50;;
21356;SDS011;10836;53.068;18.234;2023-04-01T15:54:32;7.37;;;4.77;;
21356;SDS011;10836;53.068;18.234;2023-04-01T16:02:59;9.10;;;6.00;;
21356;SDS011;10836;53.068;18.234;2023-04-01T16:08:50;11.13;;;6.30;;
21356;SDS011;10836;53.068;18.234;2023-04-01T16:11:32;12.93;;;6.77;;
21356;SDS011;10836;53.068;18.234;2023-04-01T16:17:06;9.40;;;5.83;;
21356;SDS011;10836;53.068;18.234;2023-04-01T16:22:38;10.63;;;6.23;;
21356;SDS011;10836;53.068;18.234;2023-04-01T16:25:19;11.67;;;6.90;;
21356;SDS011;10836;53.068;18.234;2023-04-01T16:33:38;12.43;;;7.30;;
21356;SDS011;10836;53.068;18.234;2023-04-01T16:39:11;14.60;;;9.20;;
21356;SDS011;10836;53.068;18.234;2023-04-01T16:45:00;17.07;;;10.63;;
21356;SDS011;10836;53.068;18.234;2023-04-01T16:47:36;14.87;;;9.77;;
21356;SDS011;10836;53.068;18.234;2023-04-01T16:50:20;15.87;;;10.67;;
21356;SDS011;10836;53.068;18.234;2023-04-01T16:53:09;14.60;;;10.20;;
21356;SDS011;10836;53.068;18.234;2023-04-01T16:56:03;17.23;;;11.40;;
21356;SDS011;10836;53.068;18.234;2023-04-01T17:01:53;18.57;;;11.10;;
21356;SDS011;10836;53.068;18.234;2023-04-01T17:04:35;15.27;;;9.33;;
21356;SDS011;10836;53.068;18.234;2023-04-01T17:10:17;13.80;;;9.07;;
21356;SDS011;10836;53.068;18.234;2023-04-01T17:18:34;11.57;;;7.60;;
21356;SDS011;10836;53.068;18.234;2023-04-01T17:21:12;10.80;;;6.43;;
21356;SDS011;10836;53.068;18.234;2023-04-01T17:24:36;7.13;;;5.53;;
21356;SDS011;10836;53.068;18.234;2023-04-01T17:38:26;10.53;;;5.87;;
21356;SDS011;10836;53.068;18.234;2023-04-01T17:41:08;11.47;;;6.00;;
21356;SDS011;10836;53.068;18.234;2023-04-01T17:44:12;11.03;;;6.33;;
21356;SDS011;10836;53.068;18.234;2023-04-01T17:51:40;13.33;;;7.93;;
21356;SDS011;10836;53.068;18.234;2023-04-01T17:54:26;10.10;;;6.80;;
21356;SDS011;10836;53.068;18.234;2023-04-01T18:05:35;10.47;;;6.00;;
21356;SDS011;10836;53.068;18.234;2023-04-01T18:21:49;12.43;;;7.37;;
21356;SDS011;10836;53.068;18.234;2023-04-01T18:24:24;13.70;;;7.10;;
21356;SDS011;10836;53.068;18.234;2023-04-01T18:27:02;12.03;;;7.23;;
21356;SDS011;10836;53.068;18.234;2023-04-01T18:29:40;15.33;;;8.17;;
21356;SDS011;10836;53.068;18.234;2023-04-01T18:35:17;12.50;;;8.23;;
21356;SDS011;10836;53.068;18.234;2023-04-01T18:47:17;10.33;;;5.60;;
21356;SDS011;10836;53.068;18.234;2023-04-01T18:50:15;9.23;;;5.37;;
21356;SDS011;10836;53.068;18.234;2023-04-01T18:52:51;10.30;;;6.17;;
21356;SDS011;10836;53.068;18.234;2023-04-01T18:55:32;12.60;;;7.20;;
21356;SDS011;10836;53.068;18.234;2023-04-01T18:58:11;10.37;;;6.60;;
21356;SDS011;10836;53.068;18.234;2023-04-01T19:06:14;12.37;;;7.23;;
21356;SDS011;10836;53.068;18.234;2023-04-01T19:08:49;13.47;;;7.57;;
21356;SDS011;10836;53.068;18.234;2023-04-01T19:11:39;12.40;;;7.37;;
21356;SDS011;10836;53.068;18.234;2023-04-01T19:16:46;13.20;;;7.87;;
21356;SDS011;10836;53.068;18.234;2023-04-01T19:19:29;14.73;;;8.43;;
21356;SDS011;10836;53.068;18.234;2023-04-01T19:25:12;16.63;;;8.50;;
21356;SDS011;10836;53.068;18.234;2023-04-01T19:27:52;17.60;;;10.00;;
21356;SDS011;10836;53.068;18.234;2023-04-01T19:33:09;12.30;;;7.73;;
21356;SDS011;10836;53.068;18.234;2023-04-01T19:35:58;15.73;;;8.27;;
21356;SDS011;10836;53.068;18.234;2023-04-01T19:41:36;18.93;;;9.83;;
21356;SDS011;10836;53.068;18.234;2023-04-01T19:44:20;16.37;;;9.23;;
21356;SDS011;10836;53.068;18.234;2023-04-01T19:46:58;15.70;;;9.80;;
21356;SDS011;10836;53.068;18.234;2023-04-01T19:55:03;18.33;;;8.83;;
21356;SDS011;10836;53.068;18.234;2023-04-01T20:00:34;18.50;;;10.57;;
21356;SDS011;10836;53.068;18.234;2023-04-01T20:03:21;19.23;;;10.07;;
21356;SDS011;10836;53.068;18.234;2023-04-01T20:06:05;17.40;;;9.93;;
21356;SDS011;10836;53.068;18.234;2023-04-01T20:08:48;19.23;;;11.13;;
21356;SDS011;10836;53.068;18.234;2023-04-01T20:11:50;22.00;;;11.40;;
21356;SDS011;10836;53.068;18.234;2023-04-01T20:17:11;19.80;;;11.10;;
21356;SDS011;10836;53.068;18.234;2023-04-01T20:19:53;16.67;;;9.67;;
21356;SDS011;10836;53.068;18.234;2023-04-01T20:28:09;20.20;;;11.00;;
21356;SDS011;10836;53.068;18.234;2023-04-01T20:36:46;21.53;;;10.90;;
21356;SDS011;10836;53.068;18.234;2023-04-01T20:42:10;24.87;;;11.83;;
21356;SDS011;10836;53.068;18.234;2023-04-01T20:50:29;24.67;;;11.43;;
21356;SDS011;10836;53.068;18.234;2023-04-01T21:01:43;22.27;;;11.87;;
21356;SDS011;10836;53.068;18.234;2023-04-01T21:04:27;19.37;;;10.93;;
21356;SDS011;10836;53.068;18.234;2023-04-01T21:07:11;19.33;;;11.47;;
21356;SDS011;10836;53.068;18.234;2023-04-01T21:21:05;22.90;;;10.93;;
21356;SDS011;10836;53.068;18.234;2023-04-01T21:32:19;14.97;;;9.23;;
21356;SDS011;10836;53.068;18.234;2023-04-01T21:37:55;19.07;;;9.93;;
21356;SDS011;10836;53.068;18.234;2023-04-01T21:43:05;19.47;;;10.27;;
21356;SDS011;10836;53.068;18.234;2023-04-01T21:46:10;17.60;;;10.20;;
21356;SDS011;10836;53.068;18.234;2023-04-01T21:54:49;19.87;;;9.83;;
21356;SDS011;10836;53.068;18.234;2023-04-01T22:00:37;16.13;;;9.63;;
21356;SDS011;10836;53.068;18.234;2023-04-01T22:08:51;15.57;;;9.47;;
21356;SDS011;10836;53.068;18.234;2023-04-01T22:11:29;18.50;;;9.53;;
21356;SDS011;10836;53.068;18.234;2023-04-01T22:14:24;19.07;;;9.37;;
21356;SDS011;10836;53.068;18.234;2023-04-01T22:16:59;17.37;;;10.23;;
21356;SDS011;10836;53.068;18.234;2023-04-01T22:22:30;20.77;;;9.60;;
21356;SDS011;10836;53.068;18.234;2023-04-01T22:25:18;17.17;;;9.50;;
21356;SDS011;10836;53.068;18.234;2023-04-01T22:27:54;19.33;;;9.23;;
21356;SDS011;10836;53.068;18.234;2023-04-01T22:33:14;17.60;;;8.57;;
21356;SDS011;10836;53.068;18.234;2023-04-01T22:44:50;16.63;;;7.53;;
21356;SDS011;10836;53.068;18.234;2023-04-01T22:50:18;14.90;;;7.47;;
21356;SDS011;10836;53.068;18.234;2023-04-01T22:52:50;16.70;;;7.90;;
21356;SDS011;10836;53.068;18.234;2023-04-01T22:55:32;17.13;;;7.80;;
21356;SDS011;10836;53.068;18.234;2023-04-01T22:58:21;15.00;;;7.20;;
21356;SDS011;10836;53.068;18.234;2023-04-01T23:00:58;12.63;;;6.57;;
21356;SDS011;10836;53.068;18.234;2023-04-01T23:03:29;11.30;;;6.23;;
21356;SDS011;10836;53.068;18.234;2023-04-01T23:05:59;12.33;;;6.90;;
21356;SDS011;10836;53.068;18.234;2023-04-01T23:11:04;9.20;;;5.97;;
21356;SDS011;10836;53.068;18.234;2023-04-01T23:13:34;11.13;;;5.50;;
21356;SDS011;10836;53.068;18.234;2023-04-01T23:16:06;12.00;;;6.37;;
21356;SDS011;10836;53.068;18.234;2023-04-01T23:18:45;10.87;;;5.90;;
21356;SDS011;10836;53.068;18.234;2023-04-01T23:21:26;12.70;;;5.50;;
21356;SDS011;10836;53.068;18.234;2023-04-01T23:26:52;8.60;;;5.20;;
21356;SDS011;10836;53.068;18.234;2023-04-01T23:29:25;12.03;;;5.33;;
21356;SDS011;10836;53.068;18.234;2023-04-01T23:34:31;13.33;;;5.17;;
21356;SDS011;10836;53.068;18.234;2023-04-01T23:37:02;9.30;;;4.73;;
21356;SDS011;10836;53.068;18.234;2023-04-01T23:39:43;9.70;;;5.17;;
21356;SDS011;10836;53.068;18.234;2023-04-01T23:44:39;12.83;;;5.17;;
21356;SDS011;10836;53.068;18.234;2023-04-01T23:47:08;7.33;;;4.27;;
21356;SDS011;10836;53.068;18.234;2023-04-01T23:49:44;8.07;;;4.53;;
21356;SDS011;10836;53.068;18.234;2023-04-01T23:55:02;9.87;;;4.63;;
